TVF9851 GMAD-LFRN
Flight info
| Callsign | TVF9851 |
|---|---|
| Flight time | 3h 7m |
| Altitude | 34000 |
| Route | MOGBA UH300 ESS UR724 OSLAD DCT OBOLO DCT VFA/N0453F360 DCT MARIM DCT ALAGU DCT ELVAR DCT BARDI DCT ZMR DCT VETAN DCT OMESI DCT VES DCT LOTEE DCT AZFIC UN741 ERIGA/N0372F180 R14 NTS H34 OGLOT |
| Aircraft | B738/M-SDE2E3FGHIRWXY/LB1 |
Departure
| Time | 2026-04-26 12:08 |
|---|---|
| Airport | Al Massira Airport (GMAD) |
Arrival
| Time | 2026-04-26 15:15 |
|---|---|
| Airport | Rennes-Saint-Jacques Airport (LFRN) |
| Time | Latitude | Longitude | Altitude | Speed | Heading |
|---|---|---|---|---|---|
| 2026-04-26 10:57 | 30.32878 | -9.40997 | 230 ft | 0 kts | 2° |
| 2026-04-26 11:07 | 30.32881 | -9.40997 | 230 ft | 0 kts | 2° |
| 2026-04-26 11:53 | 30.32874 | -9.40998 | 230 ft | 4 kts | 2° |
| 2026-04-26 11:53 | 30.32856 | -9.40998 | 230 ft | 4 kts | 2° |
| 2026-04-26 11:53 | 30.32833 | -9.41000 | 230 ft | 4 kts | 11° |
| 2026-04-26 11:54 | 30.32809 | -9.41041 | 234 ft | 4 kts | 92° |
| 2026-04-26 11:54 | 30.32809 | -9.41050 | 234 ft | 1 kts | 91° |
| 2026-04-26 11:58 | 30.32809 | -9.41049 | 234 ft | 1 kts | 91° |
| 2026-04-26 11:59 | 30.32809 | -9.41030 | 234 ft | 4 kts | 91° |
| 2026-04-26 11:59 | 30.32807 | -9.40980 | 232 ft | 8 kts | 91° |
| 2026-04-26 11:59 | 30.32805 | -9.40896 | 230 ft | 12 kts | 90° |
| 2026-04-26 11:59 | 30.32805 | -9.40800 | 230 ft | 10 kts | 90° |
| 2026-04-26 12:00 | 30.32801 | -9.40720 | 230 ft | 10 kts | 101° |
| 2026-04-26 12:00 | 30.32755 | -9.40667 | 230 ft | 10 kts | 161° |
| 2026-04-26 12:00 | 30.32686 | -9.40665 | 230 ft | 10 kts | 181° |
| 2026-04-26 12:00 | 30.32611 | -9.40666 | 230 ft | 11 kts | 181° |
| 2026-04-26 12:01 | 30.32537 | -9.40667 | 231 ft | 10 kts | 181° |
| 2026-04-26 12:01 | 30.32467 | -9.40659 | 230 ft | 10 kts | 150° |
| 2026-04-26 12:01 | 30.32440 | -9.40590 | 230 ft | 10 kts | 92° |
| 2026-04-26 12:01 | 30.32437 | -9.40512 | 230 ft | 10 kts | 92° |
| 2026-04-26 12:02 | 30.32434 | -9.40434 | 230 ft | 10 kts | 92° |
| 2026-04-26 12:02 | 30.32431 | -9.40348 | 230 ft | 11 kts | 92° |
| 2026-04-26 12:02 | 30.32427 | -9.40256 | 230 ft | 11 kts | 92° |
| 2026-04-26 12:02 | 30.32424 | -9.40166 | 230 ft | 11 kts | 91° |
| 2026-04-26 12:03 | 30.32423 | -9.40078 | 230 ft | 11 kts | 91° |
| 2026-04-26 12:03 | 30.32422 | -9.39993 | 230 ft | 10 kts | 91° |
| 2026-04-26 12:03 | 30.32421 | -9.39909 | 230 ft | 10 kts | 91° |
| 2026-04-26 12:03 | 30.32420 | -9.39829 | 230 ft | 10 kts | 91° |
| 2026-04-26 12:04 | 30.32419 | -9.39750 | 230 ft | 10 kts | 91° |
| 2026-04-26 12:04 | 30.32418 | -9.39674 | 230 ft | 9 kts | 91° |
| 2026-04-26 12:04 | 30.32415 | -9.39599 | 230 ft | 9 kts | 92° |
| 2026-04-26 12:04 | 30.32410 | -9.39527 | 230 ft | 9 kts | 109° |
| 2026-04-26 12:05 | 30.32359 | -9.39494 | 230 ft | 9 kts | 178° |
| 2026-04-26 12:05 | 30.32350 | -9.39494 | 230 ft | 0 kts | 181° |
| 2026-04-26 12:06 | 30.32329 | -9.39495 | 230 ft | 6 kts | 181° |
| 2026-04-26 12:06 | 30.32273 | -9.39505 | 230 ft | 11 kts | 203° |
| 2026-04-26 12:07 | 30.32225 | -9.39608 | 230 ft | 20 kts | 270° |
| 2026-04-26 12:07 | 30.32235 | -9.39915 | 230 ft | 69 kts | 271° |
| 2026-04-26 12:07 | 30.32250 | -9.40726 | 230 ft | 131 kts | 270° |
| 2026-04-26 12:07 | 30.32254 | -9.41979 | 302 ft | 176 kts | 271° |
| 2026-04-26 12:08 | 30.32314 | -9.43450 | 934 ft | 185 kts | 273° |
| 2026-04-26 12:08 | 30.32418 | -9.44989 | 1560 ft | 198 kts | 272° |
| 2026-04-26 12:08 | 30.32465 | -9.46603 | 2060 ft | 208 kts | 272° |
| 2026-04-26 12:08 | 30.32502 | -9.48378 | 2349 ft | 226 kts | 269° |
| 2026-04-26 12:09 | 30.32162 | -9.50147 | 2759 ft | 235 kts | 243° |
| 2026-04-26 12:09 | 30.31184 | -9.51721 | 3172 ft | 243 kts | 226° |
| 2026-04-26 12:09 | 30.30044 | -9.53146 | 3889 ft | 236 kts | 225° |
| 2026-04-26 12:09 | 30.28901 | -9.54522 | 4336 ft | 248 kts | 223° |
| 2026-04-26 12:10 | 30.27687 | -9.56061 | 4658 ft | 267 kts | 235° |
| 2026-04-26 12:10 | 30.26927 | -9.58078 | 5178 ft | 279 kts | 253° |
| 2026-04-26 12:10 | 30.26441 | -9.60265 | 5855 ft | 282 kts | 254° |
| 2026-04-26 12:10 | 30.25952 | -9.62486 | 6490 ft | 287 kts | 253° |
| 2026-04-26 12:11 | 30.25447 | -9.64728 | 7157 ft | 289 kts | 253° |
| 2026-04-26 12:11 | 30.24931 | -9.66989 | 7819 ft | 292 kts | 252° |
| 2026-04-26 12:11 | 30.24538 | -9.69299 | 8469 ft | 298 kts | 269° |
| 2026-04-26 12:11 | 30.25006 | -9.71629 | 9132 ft | 303 kts | 297° |
| 2026-04-26 12:12 | 30.26355 | -9.73479 | 9829 ft | 304 kts | 325° |
| 2026-04-26 12:12 | 30.28297 | -9.74469 | 10253 ft | 314 kts | 351° |
| 2026-04-26 12:12 | 30.30527 | -9.74827 | 10399 ft | 334 kts | 344° |
| 2026-04-26 12:12 | 30.32001 | -9.75438 | 10523 ft | 346 kts | 341° |
| 2026-04-26 12:13 | 30.35277 | -9.75878 | 10799 ft | 366 kts | 3° |
| 2026-04-26 12:13 | 30.37842 | -9.75698 | 11275 ft | 372 kts | 4° |
| 2026-04-26 12:13 | 30.40435 | -9.75536 | 11920 ft | 373 kts | 2° |
| 2026-04-26 12:13 | 30.43043 | -9.75472 | 12511 ft | 377 kts | 0° |
| 2026-04-26 12:14 | 30.45683 | -9.75498 | 13098 ft | 380 kts | 359° |
| 2026-04-26 12:14 | 30.48338 | -9.75579 | 13752 ft | 383 kts | 358° |
| 2026-04-26 12:14 | 30.51013 | -9.75685 | 14299 ft | 386 kts | 358° |
| 2026-04-26 12:14 | 30.53702 | -9.75795 | 14908 ft | 388 kts | 358° |
| 2026-04-26 12:15 | 30.56414 | -9.75890 | 15475 ft | 391 kts | 360° |
| 2026-04-26 12:15 | 30.59112 | -9.75764 | 16038 ft | 395 kts | 3° |
| 2026-04-26 12:15 | 30.61862 | -9.75525 | 16590 ft | 398 kts | 4° |
| 2026-04-26 12:15 | 30.64630 | -9.75256 | 17211 ft | 400 kts | 4° |
| 2026-04-26 12:16 | 30.67417 | -9.74984 | 17769 ft | 404 kts | 4° |
| 2026-04-26 12:16 | 30.70232 | -9.74718 | 18284 ft | 407 kts | 4° |
| 2026-04-26 12:16 | 30.73066 | -9.74461 | 18812 ft | 409 kts | 4° |
| 2026-04-26 12:16 | 30.75910 | -9.74210 | 19239 ft | 413 kts | 3° |
| 2026-04-26 12:17 | 30.78787 | -9.73959 | 19726 ft | 415 kts | 3° |
| 2026-04-26 12:17 | 30.81688 | -9.73709 | 20210 ft | 418 kts | 3° |
| 2026-04-26 12:17 | 30.84602 | -9.73457 | 20660 ft | 422 kts | 3° |
| 2026-04-26 12:17 | 30.87548 | -9.73203 | 21142 ft | 424 kts | 3° |
| 2026-04-26 12:18 | 30.90507 | -9.72947 | 21550 ft | 428 kts | 3° |
| 2026-04-26 12:18 | 30.93487 | -9.72688 | 21982 ft | 431 kts | 3° |
| 2026-04-26 12:18 | 30.96487 | -9.72428 | 22428 ft | 434 kts | 3° |
| 2026-04-26 12:18 | 30.99512 | -9.72165 | 22833 ft | 437 kts | 3° |
| 2026-04-26 12:19 | 31.02558 | -9.71901 | 23232 ft | 440 kts | 3° |
| 2026-04-26 12:19 | 31.05629 | -9.71639 | 23652 ft | 442 kts | 3° |
| 2026-04-26 12:19 | 31.08703 | -9.71379 | 23976 ft | 446 kts | 3° |
| 2026-04-26 12:19 | 31.11803 | -9.71116 | 24364 ft | 447 kts | 3° |
| 2026-04-26 12:20 | 31.14884 | -9.70854 | 24762 ft | 448 kts | 3° |
| 2026-04-26 12:20 | 31.18061 | -9.70584 | 25023 ft | 453 kts | 3° |
| 2026-04-26 12:20 | 31.21167 | -9.70319 | 25369 ft | 454 kts | 3° |
| 2026-04-26 12:20 | 31.24313 | -9.70051 | 25793 ft | 455 kts | 3° |
| 2026-04-26 12:21 | 31.27532 | -9.69776 | 26083 ft | 459 kts | 3° |
| 2026-04-26 12:21 | 31.30683 | -9.69506 | 26363 ft | 462 kts | 4° |
| 2026-04-26 12:21 | 31.33897 | -9.69231 | 26667 ft | 464 kts | 4° |
| 2026-04-26 12:21 | 31.37117 | -9.68956 | 27039 ft | 465 kts | 4° |
| 2026-04-26 12:22 | 31.40362 | -9.68630 | 27276 ft | 468 kts | 7° |
| 2026-04-26 12:22 | 31.43568 | -9.67898 | 27567 ft | 470 kts | 13° |
| 2026-04-26 12:22 | 31.46757 | -9.66984 | 27850 ft | 473 kts | 14° |
| 2026-04-26 12:22 | 31.49953 | -9.66020 | 28153 ft | 475 kts | 14° |
| 2026-04-26 12:23 | 31.53159 | -9.65048 | 28432 ft | 477 kts | 14° |
| 2026-04-26 12:23 | 31.56375 | -9.64082 | 28708 ft | 479 kts | 14° |
| 2026-04-26 12:23 | 31.59621 | -9.63123 | 28984 ft | 481 kts | 14° |
| 2026-04-26 12:23 | 31.62830 | -9.62188 | 29324 ft | 481 kts | 14° |
| 2026-04-26 12:24 | 31.66111 | -9.61241 | 29747 ft | 480 kts | 14° |
| 2026-04-26 12:24 | 31.69323 | -9.60316 | 30086 ft | 480 kts | 14° |
| 2026-04-26 12:24 | 31.72567 | -9.59385 | 30381 ft | 480 kts | 14° |
| 2026-04-26 12:25 | 31.79048 | -9.57524 | 30958 ft | 479 kts | 13° |
| 2026-04-26 12:25 | 31.82290 | -9.56591 | 31276 ft | 478 kts | 13° |
| 2026-04-26 12:25 | 31.85527 | -9.55657 | 31614 ft | 477 kts | 13° |
| 2026-04-26 12:25 | 31.88750 | -9.54727 | 31915 ft | 476 kts | 13° |
| 2026-04-26 12:26 | 31.91974 | -9.53795 | 32219 ft | 475 kts | 13° |
| 2026-04-26 12:26 | 31.95174 | -9.52869 | 32542 ft | 474 kts | 13° |
| 2026-04-26 12:26 | 31.98379 | -9.51942 | 32803 ft | 474 kts | 13° |
| 2026-04-26 12:26 | 32.01594 | -9.51011 | 33080 ft | 474 kts | 13° |
| 2026-04-26 12:27 | 32.04743 | -9.50098 | 33332 ft | 474 kts | 13° |
| 2026-04-26 12:27 | 32.07940 | -9.49171 | 33625 ft | 472 kts | 13° |
| 2026-04-26 12:27 | 32.11123 | -9.48247 | 33935 ft | 471 kts | 14° |
| 2026-04-26 12:27 | 32.14314 | -9.47321 | 34182 ft | 470 kts | 14° |
| 2026-04-26 12:28 | 32.17488 | -9.46398 | 34393 ft | 470 kts | 13° |
| 2026-04-26 12:28 | 32.20670 | -9.45473 | 34573 ft | 470 kts | 13° |
| 2026-04-26 12:28 | 32.23844 | -9.44549 | 34786 ft | 470 kts | 13° |
| 2026-04-26 12:28 | 32.27011 | -9.43627 | 35017 ft | 469 kts | 13° |
| 2026-04-26 12:29 | 32.30179 | -9.42704 | 35210 ft | 469 kts | 13° |
| 2026-04-26 12:29 | 32.33309 | -9.41791 | 35410 ft | 468 kts | 13° |
| 2026-04-26 12:29 | 32.39638 | -9.39943 | 35760 ft | 468 kts | 13° |
| 2026-04-26 12:30 | 32.42794 | -9.39020 | 35967 ft | 468 kts | 13° |
| 2026-04-26 12:30 | 32.45996 | -9.38083 | 36172 ft | 467 kts | 13° |
| 2026-04-26 12:30 | 32.49108 | -9.37173 | 36340 ft | 467 kts | 13° |
| 2026-04-26 12:31 | 32.55416 | -9.35324 | 36694 ft | 466 kts | 13° |
| 2026-04-26 12:31 | 32.58553 | -9.34404 | 36880 ft | 466 kts | 13° |
| 2026-04-26 12:31 | 32.61703 | -9.33479 | 37047 ft | 465 kts | 13° |
| 2026-04-26 12:31 | 32.64856 | -9.32552 | 37221 ft | 465 kts | 13° |
| 2026-04-26 12:32 | 32.68001 | -9.31628 | 37367 ft | 465 kts | 13° |
| 2026-04-26 12:32 | 32.71141 | -9.30704 | 37518 ft | 465 kts | 13° |
| 2026-04-26 12:32 | 32.77372 | -9.28869 | 37857 ft | 463 kts | 13° |
| 2026-04-26 12:33 | 32.80506 | -9.27945 | 37954 ft | 464 kts | 13° |
| 2026-04-26 12:33 | 32.86780 | -9.26093 | 37954 ft | 464 kts | 13° |
| 2026-04-26 12:34 | 32.93044 | -9.24241 | 37962 ft | 461 kts | 13° |
| 2026-04-26 12:34 | 32.99243 | -9.22405 | 37961 ft | 459 kts | 13° |
| 2026-04-26 12:35 | 33.05423 | -9.20573 | 37960 ft | 457 kts | 13° |
| 2026-04-26 12:35 | 33.11590 | -9.18742 | 37968 ft | 456 kts | 13° |
| 2026-04-26 12:36 | 33.17758 | -9.16909 | 37969 ft | 456 kts | 13° |
| 2026-04-26 12:36 | 33.23878 | -9.15099 | 37970 ft | 457 kts | 13° |
| 2026-04-26 12:37 | 33.30070 | -9.13267 | 37971 ft | 458 kts | 13° |
| 2026-04-26 12:37 | 33.36275 | -9.11428 | 37979 ft | 460 kts | 13° |
| 2026-04-26 12:38 | 33.41457 | -9.09888 | 37976 ft | 461 kts | 13° |
| 2026-04-26 12:38 | 33.47703 | -9.08030 | 37975 ft | 463 kts | 13° |
| 2026-04-26 12:39 | 33.53923 | -9.06176 | 37972 ft | 464 kts | 13° |
| 2026-04-26 12:39 | 33.60240 | -9.04291 | 37975 ft | 465 kts | 13° |
| 2026-04-26 12:40 | 33.66479 | -9.02426 | 37972 ft | 466 kts | 13° |
| 2026-04-26 12:40 | 33.72776 | -9.00542 | 37979 ft | 466 kts | 13° |
| 2026-04-26 12:41 | 33.79071 | -8.98656 | 37971 ft | 466 kts | 13° |
| 2026-04-26 12:41 | 33.85359 | -8.96769 | 37976 ft | 465 kts | 13° |
| 2026-04-26 12:42 | 33.91637 | -8.94881 | 37979 ft | 464 kts | 13° |
| 2026-04-26 12:42 | 33.97899 | -8.92995 | 37980 ft | 463 kts | 13° |
| 2026-04-26 12:43 | 34.04156 | -8.91108 | 37979 ft | 463 kts | 13° |
| 2026-04-26 12:43 | 34.10400 | -8.89222 | 37988 ft | 462 kts | 13° |
| 2026-04-26 12:44 | 34.16609 | -8.87344 | 37988 ft | 462 kts | 13° |
| 2026-04-26 12:44 | 34.22846 | -8.85454 | 37991 ft | 462 kts | 13° |
| 2026-04-26 12:45 | 34.29080 | -8.83563 | 37993 ft | 462 kts | 13° |
| 2026-04-26 12:45 | 34.35320 | -8.81666 | 37991 ft | 462 kts | 13° |
| 2026-04-26 12:46 | 34.41573 | -8.79763 | 37995 ft | 463 kts | 13° |
| 2026-04-26 12:46 | 34.47821 | -8.77857 | 37992 ft | 464 kts | 13° |
| 2026-04-26 12:47 | 34.54088 | -8.75936 | 38000 ft | 464 kts | 13° |
| 2026-04-26 12:47 | 34.60364 | -8.74010 | 38005 ft | 465 kts | 13° |
| 2026-04-26 12:48 | 34.66644 | -8.72079 | 38006 ft | 466 kts | 13° |
| 2026-04-26 12:48 | 34.72898 | -8.70153 | 38007 ft | 466 kts | 13° |
| 2026-04-26 12:49 | 34.79188 | -8.68214 | 38008 ft | 467 kts | 13° |
| 2026-04-26 12:49 | 34.85486 | -8.66269 | 38010 ft | 467 kts | 13° |
| 2026-04-26 12:50 | 34.91788 | -8.64320 | 38013 ft | 467 kts | 13° |
| 2026-04-26 12:50 | 34.98076 | -8.62371 | 38013 ft | 465 kts | 13° |
| 2026-04-26 12:51 | 35.04348 | -8.60424 | 38010 ft | 463 kts | 13° |
| 2026-04-26 12:51 | 35.10585 | -8.58486 | 38017 ft | 461 kts | 13° |
| 2026-04-26 12:52 | 35.16786 | -8.56554 | 38027 ft | 460 kts | 13° |
| 2026-04-26 12:52 | 35.23007 | -8.54616 | 38032 ft | 463 kts | 13° |
| 2026-04-26 12:53 | 35.29244 | -8.52670 | 38036 ft | 466 kts | 13° |
| 2026-04-26 12:53 | 35.35559 | -8.50695 | 38038 ft | 469 kts | 13° |
| 2026-04-26 12:54 | 35.41899 | -8.48708 | 38037 ft | 471 kts | 13° |
| 2026-04-26 12:54 | 35.48249 | -8.46714 | 38027 ft | 470 kts | 13° |
| 2026-04-26 12:55 | 35.54560 | -8.44729 | 38029 ft | 466 kts | 13° |
| 2026-04-26 12:55 | 35.60796 | -8.42767 | 38031 ft | 459 kts | 13° |
| 2026-04-26 12:56 | 35.66941 | -8.40829 | 38035 ft | 453 kts | 12° |
| 2026-04-26 12:56 | 35.73046 | -8.38901 | 38060 ft | 454 kts | 12° |
| 2026-04-26 12:57 | 35.79138 | -8.36975 | 38053 ft | 456 kts | 12° |
| 2026-04-26 12:57 | 35.85297 | -8.35023 | 38062 ft | 459 kts | 12° |
| 2026-04-26 12:58 | 35.94635 | -8.32058 | 38064 ft | 464 kts | 12° |
| 2026-04-26 12:58 | 36.00897 | -8.30065 | 38052 ft | 464 kts | 13° |
| 2026-04-26 12:59 | 36.07137 | -8.28074 | 38055 ft | 462 kts | 13° |
| 2026-04-26 12:59 | 36.13345 | -8.26088 | 38048 ft | 458 kts | 13° |
| 2026-04-26 13:00 | 36.19467 | -8.24127 | 38048 ft | 452 kts | 13° |
| 2026-04-26 13:00 | 36.25520 | -8.22186 | 38057 ft | 447 kts | 13° |
| 2026-04-26 13:01 | 36.31548 | -8.20251 | 38088 ft | 449 kts | 13° |
| 2026-04-26 13:01 | 36.37647 | -8.18289 | 38081 ft | 454 kts | 13° |
| 2026-04-26 13:02 | 36.43784 | -8.16311 | 38076 ft | 458 kts | 13° |
| 2026-04-26 13:02 | 36.49973 | -8.14312 | 38068 ft | 460 kts | 13° |
| 2026-04-26 13:03 | 36.56148 | -8.12314 | 38060 ft | 459 kts | 13° |
| 2026-04-26 13:03 | 36.62293 | -8.10312 | 38053 ft | 451 kts | 13° |
| 2026-04-26 13:04 | 36.68295 | -8.08353 | 38060 ft | 448 kts | 13° |
| 2026-04-26 13:04 | 36.74324 | -8.06384 | 38062 ft | 446 kts | 13° |
| 2026-04-26 13:05 | 36.80375 | -8.04405 | 38060 ft | 446 kts | 13° |
| 2026-04-26 13:05 | 36.86379 | -8.02438 | 38054 ft | 446 kts | 13° |
| 2026-04-26 13:06 | 36.92398 | -8.00462 | 38053 ft | 447 kts | 13° |
| 2026-04-26 13:06 | 36.98462 | -7.98469 | 38057 ft | 449 kts | 13° |
| 2026-04-26 13:07 | 37.04508 | -7.96476 | 38055 ft | 451 kts | 13° |
| 2026-04-26 13:07 | 37.10547 | -7.94476 | 38053 ft | 453 kts | 13° |
| 2026-04-26 13:08 | 37.16667 | -7.92445 | 38055 ft | 455 kts | 13° |
| 2026-04-26 13:08 | 37.22792 | -7.90408 | 38053 ft | 456 kts | 13° |
| 2026-04-26 13:09 | 37.28946 | -7.88359 | 38056 ft | 457 kts | 13° |
| 2026-04-26 13:09 | 37.35100 | -7.86306 | 38059 ft | 457 kts | 13° |
| 2026-04-26 13:10 | 37.41285 | -7.84240 | 38054 ft | 456 kts | 13° |
| 2026-04-26 13:10 | 37.47427 | -7.82184 | 38054 ft | 455 kts | 13° |
| 2026-04-26 13:11 | 37.53535 | -7.80136 | 38053 ft | 454 kts | 13° |
| 2026-04-26 13:11 | 37.59635 | -7.78086 | 38054 ft | 452 kts | 13° |
| 2026-04-26 13:12 | 37.65708 | -7.76041 | 38052 ft | 451 kts | 13° |
| 2026-04-26 13:12 | 37.71754 | -7.74003 | 38046 ft | 449 kts | 13° |
| 2026-04-26 13:13 | 37.77789 | -7.71965 | 38047 ft | 448 kts | 13° |
| 2026-04-26 13:13 | 37.83787 | -7.69936 | 38045 ft | 448 kts | 13° |
| 2026-04-26 13:14 | 37.89804 | -7.67901 | 38049 ft | 448 kts | 13° |
| 2026-04-26 13:14 | 37.95833 | -7.65859 | 38051 ft | 448 kts | 13° |
| 2026-04-26 13:15 | 38.01857 | -7.63814 | 38046 ft | 448 kts | 13° |
| 2026-04-26 13:15 | 38.06914 | -7.62094 | 38047 ft | 449 kts | 13° |
| 2026-04-26 13:16 | 38.12908 | -7.60052 | 38048 ft | 449 kts | 13° |
| 2026-04-26 13:16 | 38.18949 | -7.57991 | 38042 ft | 450 kts | 13° |
| 2026-04-26 13:17 | 38.28021 | -7.54888 | 38045 ft | 450 kts | 13° |
| 2026-04-26 13:18 | 38.37153 | -7.51758 | 38038 ft | 451 kts | 13° |
| 2026-04-26 13:19 | 38.46202 | -7.48647 | 38043 ft | 451 kts | 13° |
| 2026-04-26 13:19 | 38.52258 | -7.46560 | 38038 ft | 451 kts | 13° |
| 2026-04-26 13:20 | 38.58321 | -7.44468 | 38042 ft | 451 kts | 13° |
| 2026-04-26 13:20 | 38.64422 | -7.42359 | 38044 ft | 451 kts | 13° |
| 2026-04-26 13:21 | 38.70475 | -7.40262 | 38044 ft | 451 kts | 13° |
| 2026-04-26 13:21 | 38.76492 | -7.38175 | 38044 ft | 450 kts | 13° |
| 2026-04-26 13:22 | 38.82539 | -7.36073 | 38052 ft | 450 kts | 13° |
| 2026-04-26 13:22 | 38.88618 | -7.33957 | 38051 ft | 450 kts | 13° |
| 2026-04-26 13:23 | 38.94668 | -7.31847 | 38057 ft | 450 kts | 13° |
| 2026-04-26 13:23 | 39.00716 | -7.29733 | 38034 ft | 450 kts | 13° |
| 2026-04-26 13:24 | 39.06759 | -7.27618 | 38056 ft | 450 kts | 13° |
| 2026-04-26 13:24 | 39.12758 | -7.25261 | 38039 ft | 452 kts | 22° |
| 2026-04-26 13:25 | 39.18409 | -7.21698 | 38049 ft | 453 kts | 25° |
| 2026-04-26 13:25 | 39.24010 | -7.17987 | 38048 ft | 453 kts | 25° |
| 2026-04-26 13:26 | 39.29642 | -7.14314 | 38054 ft | 453 kts | 25° |
| 2026-04-26 13:26 | 39.35294 | -7.10679 | 38068 ft | 453 kts | 25° |
| 2026-04-26 13:27 | 39.40941 | -7.07060 | 38071 ft | 454 kts | 25° |
| 2026-04-26 13:27 | 39.46605 | -7.03425 | 38053 ft | 454 kts | 25° |
| 2026-04-26 13:28 | 39.52265 | -6.99784 | 38060 ft | 454 kts | 25° |
| 2026-04-26 13:28 | 39.57942 | -6.96124 | 38059 ft | 454 kts | 25° |
| 2026-04-26 13:29 | 39.63599 | -6.92469 | 38054 ft | 455 kts | 25° |
| 2026-04-26 13:29 | 39.69262 | -6.88804 | 38064 ft | 455 kts | 25° |
| 2026-04-26 13:30 | 39.74934 | -6.85126 | 38060 ft | 455 kts | 25° |
| 2026-04-26 13:30 | 39.80602 | -6.81444 | 38055 ft | 455 kts | 25° |
| 2026-04-26 13:31 | 39.86263 | -6.77760 | 38061 ft | 455 kts | 25° |
| 2026-04-26 13:31 | 39.91921 | -6.74071 | 38054 ft | 455 kts | 25° |
| 2026-04-26 13:32 | 39.97624 | -6.70346 | 38070 ft | 454 kts | 25° |
| 2026-04-26 13:32 | 40.03234 | -6.66674 | 38074 ft | 454 kts | 25° |
| 2026-04-26 13:33 | 40.08877 | -6.62974 | 38065 ft | 454 kts | 25° |
| 2026-04-26 13:33 | 40.14530 | -6.59261 | 38066 ft | 453 kts | 25° |
| 2026-04-26 13:34 | 40.20158 | -6.55557 | 38076 ft | 453 kts | 25° |
| 2026-04-26 13:34 | 40.25779 | -6.51851 | 38086 ft | 452 kts | 25° |
| 2026-04-26 13:35 | 40.31402 | -6.48136 | 38083 ft | 452 kts | 25° |
| 2026-04-26 13:35 | 40.37024 | -6.44416 | 38084 ft | 452 kts | 25° |
| 2026-04-26 13:36 | 40.42627 | -6.40700 | 38099 ft | 452 kts | 25° |
| 2026-04-26 13:36 | 40.48239 | -6.36971 | 38092 ft | 452 kts | 25° |
| 2026-04-26 13:37 | 40.53843 | -6.33241 | 38102 ft | 451 kts | 25° |
| 2026-04-26 13:37 | 40.59451 | -6.29497 | 38098 ft | 451 kts | 26° |
| 2026-04-26 13:38 | 40.65064 | -6.25645 | 38101 ft | 451 kts | 26° |
| 2026-04-26 13:38 | 40.70663 | -6.21759 | 38109 ft | 451 kts | 26° |
| 2026-04-26 13:39 | 40.76226 | -6.17898 | 38099 ft | 451 kts | 26° |
| 2026-04-26 13:39 | 40.81780 | -6.14045 | 38103 ft | 451 kts | 26° |
| 2026-04-26 13:40 | 40.87342 | -6.10181 | 38103 ft | 451 kts | 26° |
| 2026-04-26 13:40 | 40.92907 | -6.06308 | 38106 ft | 451 kts | 26° |
| 2026-04-26 13:41 | 40.98466 | -6.02432 | 38102 ft | 451 kts | 26° |
| 2026-04-26 13:41 | 41.04021 | -5.98551 | 38107 ft | 452 kts | 26° |
| 2026-04-26 13:42 | 41.09583 | -5.94658 | 38109 ft | 452 kts | 26° |
| 2026-04-26 13:42 | 41.15144 | -5.90757 | 38109 ft | 452 kts | 27° |
| 2026-04-26 13:43 | 41.20693 | -5.86858 | 38114 ft | 452 kts | 27° |
| 2026-04-26 13:43 | 41.26269 | -5.82932 | 38117 ft | 452 kts | 27° |
| 2026-04-26 13:44 | 41.31001 | -5.79594 | 38115 ft | 452 kts | 27° |
| 2026-04-26 13:44 | 41.36565 | -5.75662 | 38116 ft | 453 kts | 27° |
| 2026-04-26 13:45 | 41.42123 | -5.71725 | 38117 ft | 453 kts | 27° |
| 2026-04-26 13:45 | 41.47698 | -5.67771 | 38122 ft | 452 kts | 27° |
| 2026-04-26 13:46 | 41.53551 | -5.64898 | 38132 ft | 448 kts | 7° |
| 2026-04-26 13:46 | 41.56651 | -5.64575 | 38108 ft | 446 kts | 356° |
| 2026-04-26 13:46 | 41.59692 | -5.64972 | 38135 ft | 444 kts | 351° |
| 2026-04-26 13:47 | 41.65848 | -5.66154 | 38122 ft | 444 kts | 350° |
| 2026-04-26 13:47 | 41.71937 | -5.67305 | 38116 ft | 444 kts | 351° |
| 2026-04-26 13:48 | 41.78060 | -5.68399 | 38121 ft | 445 kts | 351° |
| 2026-04-26 13:48 | 41.84197 | -5.69478 | 38123 ft | 445 kts | 351° |
| 2026-04-26 13:49 | 41.90386 | -5.70570 | 38126 ft | 445 kts | 351° |
| 2026-04-26 13:49 | 41.96537 | -5.71659 | 38123 ft | 445 kts | 351° |
| 2026-04-26 13:50 | 42.02678 | -5.72750 | 38129 ft | 446 kts | 351° |
| 2026-04-26 13:50 | 42.08808 | -5.73841 | 38124 ft | 447 kts | 351° |
| 2026-04-26 13:51 | 42.14974 | -5.74941 | 38124 ft | 447 kts | 351° |
| 2026-04-26 13:51 | 42.21141 | -5.76043 | 38127 ft | 447 kts | 351° |
| 2026-04-26 13:52 | 42.27313 | -5.77148 | 38128 ft | 447 kts | 351° |
| 2026-04-26 13:52 | 42.33472 | -5.78254 | 38135 ft | 447 kts | 351° |
| 2026-04-26 13:53 | 42.39646 | -5.79367 | 38141 ft | 447 kts | 351° |
| 2026-04-26 13:53 | 42.45809 | -5.80480 | 38150 ft | 447 kts | 351° |
| 2026-04-26 13:54 | 42.51988 | -5.81597 | 38151 ft | 447 kts | 351° |
| 2026-04-26 13:54 | 42.58153 | -5.82715 | 38158 ft | 447 kts | 351° |
| 2026-04-26 13:55 | 42.66351 | -5.84204 | 38153 ft | 446 kts | 351° |
| 2026-04-26 13:56 | 42.76576 | -5.86067 | 38151 ft | 446 kts | 351° |
| 2026-04-26 13:56 | 42.82733 | -5.87192 | 38154 ft | 445 kts | 351° |
| 2026-04-26 13:57 | 42.88883 | -5.88318 | 38159 ft | 445 kts | 351° |
| 2026-04-26 13:57 | 42.95028 | -5.89446 | 38160 ft | 446 kts | 351° |
| 2026-04-26 13:58 | 43.01194 | -5.90579 | 38170 ft | 447 kts | 351° |
| 2026-04-26 13:58 | 43.07319 | -5.91707 | 38170 ft | 447 kts | 351° |
| 2026-04-26 13:59 | 43.13521 | -5.92852 | 38176 ft | 447 kts | 350° |
| 2026-04-26 13:59 | 43.19704 | -5.93996 | 38189 ft | 448 kts | 350° |
| 2026-04-26 14:00 | 43.32150 | -5.96304 | 38191 ft | 451 kts | 350° |
| 2026-04-26 14:01 | 43.38333 | -5.97455 | 38209 ft | 451 kts | 350° |
| 2026-04-26 14:01 | 43.44568 | -5.98618 | 38212 ft | 452 kts | 350° |
| 2026-04-26 14:02 | 43.50813 | -5.99785 | 38216 ft | 452 kts | 350° |
| 2026-04-26 14:02 | 43.57081 | -6.00585 | 38202 ft | 456 kts | 0° |
| 2026-04-26 14:03 | 43.63412 | -5.99710 | 38210 ft | 457 kts | 5° |
| 2026-04-26 14:03 | 43.69739 | -5.98638 | 38205 ft | 457 kts | 4° |
| 2026-04-26 14:04 | 43.76029 | -5.97620 | 38207 ft | 457 kts | 4° |
| 2026-04-26 14:04 | 43.82380 | -5.96638 | 38197 ft | 457 kts | 4° |
| 2026-04-26 14:05 | 43.88714 | -5.95672 | 38206 ft | 457 kts | 4° |
| 2026-04-26 14:05 | 43.95006 | -5.94710 | 38200 ft | 457 kts | 4° |
| 2026-04-26 14:06 | 44.01331 | -5.93740 | 38199 ft | 457 kts | 4° |
| 2026-04-26 14:06 | 44.07666 | -5.92765 | 38198 ft | 458 kts | 4° |
| 2026-04-26 14:07 | 44.14035 | -5.91782 | 38197 ft | 458 kts | 4° |
| 2026-04-26 14:07 | 44.20343 | -5.90807 | 38199 ft | 458 kts | 3° |
| 2026-04-26 14:08 | 44.26688 | -5.89824 | 38197 ft | 459 kts | 3° |
| 2026-04-26 14:08 | 44.33033 | -5.88839 | 38197 ft | 459 kts | 3° |
| 2026-04-26 14:09 | 44.39394 | -5.87849 | 38198 ft | 459 kts | 3° |
| 2026-04-26 14:09 | 44.45753 | -5.86857 | 38201 ft | 460 kts | 3° |
| 2026-04-26 14:10 | 44.52118 | -5.85862 | 38197 ft | 460 kts | 3° |
| 2026-04-26 14:10 | 44.58498 | -5.84863 | 38196 ft | 460 kts | 3° |
| 2026-04-26 14:11 | 44.67687 | -5.81009 | 38203 ft | 470 kts | 32° |
| 2026-04-26 14:11 | 44.72595 | -5.74900 | 38209 ft | 472 kts | 43° |
| 2026-04-26 14:12 | 44.77235 | -5.68357 | 38205 ft | 473 kts | 44° |
| 2026-04-26 14:12 | 44.81873 | -5.61851 | 38204 ft | 474 kts | 43° |
| 2026-04-26 14:13 | 44.88946 | -5.52062 | 38198 ft | 474 kts | 43° |
| 2026-04-26 14:14 | 44.93657 | -5.45555 | 38205 ft | 474 kts | 43° |
| 2026-04-26 14:14 | 44.98373 | -5.39025 | 38201 ft | 475 kts | 43° |
| 2026-04-26 14:15 | 45.03063 | -5.32511 | 38203 ft | 475 kts | 43° |
| 2026-04-26 14:15 | 45.07770 | -5.25957 | 38197 ft | 475 kts | 43° |
| 2026-04-26 14:16 | 45.12466 | -5.19402 | 38205 ft | 474 kts | 43° |
| 2026-04-26 14:16 | 45.17160 | -5.12833 | 38204 ft | 474 kts | 43° |
| 2026-04-26 14:17 | 45.21059 | -5.07363 | 38200 ft | 473 kts | 43° |
| 2026-04-26 14:17 | 45.25733 | -5.00794 | 38201 ft | 473 kts | 43° |
| 2026-04-26 14:18 | 45.30402 | -4.94215 | 38206 ft | 472 kts | 43° |
| 2026-04-26 14:18 | 45.35057 | -4.87638 | 38205 ft | 471 kts | 43° |
| 2026-04-26 14:19 | 45.39743 | -4.81003 | 38199 ft | 471 kts | 43° |
| 2026-04-26 14:19 | 45.44345 | -4.74470 | 38203 ft | 470 kts | 43° |
| 2026-04-26 14:20 | 45.48993 | -4.67855 | 38210 ft | 470 kts | 43° |
| 2026-04-26 14:20 | 45.53622 | -4.61253 | 38199 ft | 469 kts | 43° |
| 2026-04-26 14:21 | 45.58194 | -4.54714 | 38203 ft | 469 kts | 43° |
| 2026-04-26 14:21 | 45.62814 | -4.48091 | 38203 ft | 469 kts | 44° |
| 2026-04-26 14:22 | 45.67412 | -4.41483 | 38207 ft | 469 kts | 44° |
| 2026-04-26 14:22 | 45.72006 | -4.34865 | 38204 ft | 469 kts | 44° |
| 2026-04-26 14:23 | 45.76610 | -4.28215 | 38204 ft | 469 kts | 44° |
| 2026-04-26 14:23 | 45.81175 | -4.21606 | 38202 ft | 469 kts | 44° |
| 2026-04-26 14:24 | 45.85760 | -4.14950 | 38206 ft | 469 kts | 44° |
| 2026-04-26 14:24 | 45.90371 | -4.08242 | 38202 ft | 469 kts | 44° |
| 2026-04-26 14:25 | 45.94925 | -4.01598 | 38200 ft | 469 kts | 44° |
| 2026-04-26 14:25 | 45.99508 | -3.94896 | 38201 ft | 469 kts | 44° |
| 2026-04-26 14:26 | 46.04085 | -3.88186 | 38207 ft | 469 kts | 44° |
| 2026-04-26 14:26 | 46.08653 | -3.81472 | 38200 ft | 469 kts | 44° |
| 2026-04-26 14:27 | 46.13209 | -3.74758 | 38205 ft | 469 kts | 44° |
| 2026-04-26 14:27 | 46.17769 | -3.68023 | 38203 ft | 469 kts | 44° |
| 2026-04-26 14:28 | 46.22317 | -3.61286 | 38205 ft | 469 kts | 44° |
| 2026-04-26 14:28 | 46.26873 | -3.54522 | 38201 ft | 468 kts | 44° |
| 2026-04-26 14:29 | 46.31415 | -3.47762 | 38206 ft | 468 kts | 44° |
| 2026-04-26 14:29 | 46.35924 | -3.41034 | 38202 ft | 468 kts | 44° |
| 2026-04-26 14:30 | 46.40454 | -3.34255 | 38204 ft | 467 kts | 44° |
| 2026-04-26 14:30 | 46.44976 | -3.27473 | 38207 ft | 467 kts | 44° |
| 2026-04-26 14:31 | 46.49480 | -3.20699 | 38207 ft | 467 kts | 44° |
| 2026-04-26 14:31 | 46.53985 | -3.13908 | 38205 ft | 467 kts | 44° |
| 2026-04-26 14:32 | 46.58128 | -3.06777 | 38182 ft | 452 kts | 58° |
| 2026-04-26 14:32 | 46.59710 | -3.02884 | 38204 ft | 441 kts | 59° |
| 2026-04-26 14:32 | 46.61217 | -2.99037 | 38200 ft | 437 kts | 59° |
| 2026-04-26 14:33 | 46.64251 | -2.91267 | 38221 ft | 442 kts | 59° |
| 2026-04-26 14:33 | 46.67351 | -2.83439 | 38218 ft | 448 kts | 59° |
| 2026-04-26 14:34 | 46.70492 | -2.75551 | 38212 ft | 451 kts | 59° |
| 2026-04-26 14:34 | 46.73628 | -2.67665 | 38210 ft | 453 kts | 59° |
| 2026-04-26 14:35 | 46.76773 | -2.59727 | 38190 ft | 445 kts | 59° |
| 2026-04-26 14:35 | 46.79827 | -2.51995 | 38199 ft | 440 kts | 59° |
| 2026-04-26 14:36 | 46.82880 | -2.44248 | 38203 ft | 440 kts | 59° |
| 2026-04-26 14:36 | 46.85808 | -2.36213 | 38196 ft | 440 kts | 68° |
| 2026-04-26 14:37 | 46.87249 | -2.27648 | 38218 ft | 441 kts | 80° |
| 2026-04-26 14:37 | 46.88336 | -2.18749 | 38205 ft | 442 kts | 79° |
| 2026-04-26 14:38 | 46.89925 | -2.10098 | 38196 ft | 441 kts | 64° |
| 2026-04-26 14:38 | 46.93154 | -2.02518 | 38202 ft | 439 kts | 49° |
| 2026-04-26 14:39 | 46.97064 | -1.95625 | 38194 ft | 441 kts | 48° |
| 2026-04-26 14:39 | 47.00983 | -1.88703 | 38185 ft | 443 kts | 49° |
| 2026-04-26 14:40 | 47.04886 | -1.81681 | 38186 ft | 444 kts | 49° |
| 2026-04-26 14:40 | 47.08794 | -1.74593 | 38186 ft | 445 kts | 49° |
| 2026-04-26 14:41 | 47.12696 | -1.67502 | 38183 ft | 445 kts | 49° |
| 2026-04-26 14:41 | 47.16582 | -1.60419 | 38183 ft | 445 kts | 50° |
| 2026-04-26 14:42 | 47.20256 | -1.53100 | 38185 ft | 445 kts | 52° |
| 2026-04-26 14:42 | 47.23883 | -1.45750 | 38176 ft | 443 kts | 52° |
| 2026-04-26 14:42 | 47.25904 | -1.42269 | 38144 ft | 438 kts | 36° |
| 2026-04-26 14:43 | 47.28417 | -1.39955 | 38199 ft | 429 kts | 19° |
| 2026-04-26 14:43 | 47.31247 | -1.38694 | 38168 ft | 422 kts | 4° |
| 2026-04-26 14:43 | 47.34189 | -1.38531 | 38200 ft | 416 kts | 354° |
| 2026-04-26 14:44 | 47.39958 | -1.38996 | 38180 ft | 415 kts | 353° |
| 2026-04-26 14:44 | 47.45738 | -1.39515 | 38175 ft | 416 kts | 353° |
| 2026-04-26 14:45 | 47.51525 | -1.39960 | 38181 ft | 417 kts | 354° |
| 2026-04-26 14:45 | 47.57332 | -1.40370 | 38185 ft | 419 kts | 354° |
| 2026-04-26 14:46 | 47.63129 | -1.40775 | 38180 ft | 420 kts | 354° |
| 2026-04-26 14:46 | 47.68977 | -1.41187 | 38188 ft | 421 kts | 354° |
| 2026-04-26 14:47 | 47.74808 | -1.41597 | 37915 ft | 416 kts | 354° |
| 2026-04-26 14:47 | 47.76728 | -1.41733 | 37595 ft | 414 kts | 354° |
| 2026-04-26 14:47 | 47.80539 | -1.41946 | 36927 ft | 415 kts | 0° |
| 2026-04-26 14:47 | 47.82473 | -1.41537 | 36756 ft | 414 kts | 12° |
| 2026-04-26 14:48 | 47.85109 | -1.39961 | 36502 ft | 413 kts | 28° |
| 2026-04-26 14:48 | 47.87380 | -1.37348 | 36147 ft | 414 kts | 45° |
| 2026-04-26 14:48 | 47.89077 | -1.33888 | 35710 ft | 416 kts | 63° |
| 2026-04-26 14:48 | 47.90041 | -1.29831 | 35300 ft | 415 kts | 80° |
| 2026-04-26 14:49 | 47.90180 | -1.25529 | 34946 ft | 411 kts | 98° |
| 2026-04-26 14:49 | 47.89503 | -1.21430 | 34624 ft | 404 kts | 115° |
| 2026-04-26 14:49 | 47.88114 | -1.17857 | 34284 ft | 396 kts | 133° |
| 2026-04-26 14:49 | 47.86163 | -1.15057 | 33915 ft | 386 kts | 149° |
| 2026-04-26 14:50 | 47.83859 | -1.13095 | 33559 ft | 378 kts | 161° |
| 2026-04-26 14:50 | 47.81380 | -1.11978 | 33186 ft | 369 kts | 175° |
| 2026-04-26 14:50 | 47.78847 | -1.11645 | 32864 ft | 362 kts | 181° |
| 2026-04-26 14:50 | 47.76337 | -1.11515 | 32536 ft | 359 kts | 182° |
| 2026-04-26 14:51 | 47.73854 | -1.11386 | 32213 ft | 356 kts | 181° |
| 2026-04-26 14:51 | 47.71373 | -1.11220 | 31894 ft | 354 kts | 181° |
| 2026-04-26 14:51 | 47.68851 | -1.11044 | 31040 ft | 365 kts | 183° |
| 2026-04-26 14:51 | 47.66285 | -1.11578 | 29638 ft | 385 kts | 201° |
| 2026-04-26 14:52 | 47.63834 | -1.13241 | 28830 ft | 388 kts | 214° |
| 2026-04-26 14:52 | 47.61723 | -1.15685 | 28409 ft | 382 kts | 227° |
| 2026-04-26 14:52 | 47.60081 | -1.18750 | 27627 ft | 385 kts | 241° |
| 2026-04-26 14:52 | 47.59052 | -1.22456 | 26737 ft | 393 kts | 257° |
| 2026-04-26 14:53 | 47.58766 | -1.26474 | 26157 ft | 394 kts | 271° |
| 2026-04-26 14:53 | 47.59227 | -1.30476 | 25738 ft | 393 kts | 286° |
| 2026-04-26 14:53 | 47.60392 | -1.34131 | 25310 ft | 393 kts | 301° |
| 2026-04-26 14:53 | 47.62183 | -1.37187 | 24849 ft | 396 kts | 316° |
| 2026-04-26 14:54 | 47.64482 | -1.39459 | 24363 ft | 400 kts | 330° |
| 2026-04-26 14:54 | 47.67109 | -1.40866 | 23886 ft | 405 kts | 346° |
| 2026-04-26 14:54 | 47.69912 | -1.41310 | 23396 ft | 406 kts | 354° |
| 2026-04-26 14:54 | 47.72695 | -1.41468 | 22910 ft | 403 kts | 355° |
| 2026-04-26 14:55 | 47.75515 | -1.41622 | 22414 ft | 400 kts | 354° |
| 2026-04-26 14:55 | 47.78293 | -1.41821 | 21931 ft | 398 kts | 354° |
| 2026-04-26 14:55 | 47.81070 | -1.41939 | 21060 ft | 406 kts | 2° |
| 2026-04-26 14:55 | 47.83867 | -1.40903 | 20142 ft | 421 kts | 22° |
| 2026-04-26 14:56 | 47.86379 | -1.38646 | 19562 ft | 423 kts | 39° |
| 2026-04-26 14:56 | 47.88360 | -1.35469 | 19113 ft | 419 kts | 56° |
| 2026-04-26 14:56 | 47.89642 | -1.31609 | 18645 ft | 414 kts | 73° |
| 2026-04-26 14:56 | 47.90102 | -1.27391 | 18130 ft | 408 kts | 91° |
| 2026-04-26 14:57 | 47.89727 | -1.23249 | 17646 ft | 400 kts | 109° |
| 2026-04-26 14:57 | 47.88617 | -1.19512 | 17169 ft | 392 kts | 125° |
| 2026-04-26 14:57 | 47.86887 | -1.16418 | 16655 ft | 384 kts | 140° |
| 2026-04-26 14:57 | 47.84726 | -1.14162 | 16133 ft | 379 kts | 153° |
| 2026-04-26 14:58 | 47.82315 | -1.12682 | 15623 ft | 374 kts | 167° |
| 2026-04-26 14:58 | 47.79755 | -1.12112 | 15090 ft | 371 kts | 177° |
| 2026-04-26 14:58 | 47.77167 | -1.11929 | 14583 ft | 369 kts | 179° |
| 2026-04-26 14:58 | 47.74614 | -1.11790 | 14069 ft | 368 kts | 178° |
| 2026-04-26 14:59 | 47.72061 | -1.11640 | 13532 ft | 366 kts | 178° |
| 2026-04-26 14:59 | 47.69527 | -1.11466 | 13034 ft | 362 kts | 178° |
| 2026-04-26 14:59 | 47.67049 | -1.11280 | 12567 ft | 359 kts | 177° |
| 2026-04-26 14:59 | 47.65371 | -1.11150 | 12230 ft | 357 kts | 178° |
| 2026-04-26 15:00 | 47.62090 | -1.10978 | 11589 ft | 353 kts | 185° |
| 2026-04-26 15:00 | 47.59682 | -1.11819 | 11179 ft | 348 kts | 202° |
| 2026-04-26 15:00 | 47.57594 | -1.13452 | 11119 ft | 332 kts | 214° |
| 2026-04-26 15:00 | 47.55865 | -1.15561 | 10974 ft | 313 kts | 226° |
| 2026-04-26 15:01 | 47.54567 | -1.17977 | 10859 ft | 295 kts | 238° |
| 2026-04-26 15:01 | 47.53667 | -1.20653 | 10565 ft | 288 kts | 250° |
| 2026-04-26 15:01 | 47.53166 | -1.23514 | 10050 ft | 288 kts | 262° |
| 2026-04-26 15:01 | 47.53077 | -1.26511 | 9492 ft | 288 kts | 274° |
| 2026-04-26 15:02 | 47.53399 | -1.29418 | 9019 ft | 285 kts | 285° |
| 2026-04-26 15:02 | 47.54110 | -1.32141 | 8531 ft | 282 kts | 298° |
| 2026-04-26 15:02 | 47.55160 | -1.34537 | 8078 ft | 279 kts | 309° |
| 2026-04-26 15:02 | 47.56450 | -1.36702 | 7624 ft | 276 kts | 314° |
| 2026-04-26 15:03 | 47.57890 | -1.38513 | 7223 ft | 271 kts | 327° |
| 2026-04-26 15:03 | 47.59505 | -1.39767 | 7177 ft | 253 kts | 340° |
| 2026-04-26 15:03 | 47.61166 | -1.40330 | 7169 ft | 240 kts | 354° |
| 2026-04-26 15:03 | 47.62830 | -1.40519 | 7182 ft | 240 kts | 356° |
| 2026-04-26 15:04 | 47.64498 | -1.40672 | 7183 ft | 239 kts | 356° |
| 2026-04-26 15:04 | 47.66163 | -1.40814 | 7174 ft | 238 kts | 356° |
| 2026-04-26 15:04 | 47.67807 | -1.40951 | 7179 ft | 238 kts | 356° |
| 2026-04-26 15:04 | 47.69461 | -1.41089 | 7173 ft | 237 kts | 356° |
| 2026-04-26 15:05 | 47.71103 | -1.41226 | 7156 ft | 237 kts | 356° |
| 2026-04-26 15:05 | 47.72193 | -1.41318 | 7187 ft | 236 kts | 356° |
| 2026-04-26 15:05 | 47.74383 | -1.41496 | 7194 ft | 236 kts | 356° |
| 2026-04-26 15:05 | 47.76030 | -1.41634 | 7187 ft | 236 kts | 356° |
| 2026-04-26 15:06 | 47.77673 | -1.41772 | 7174 ft | 237 kts | 356° |
| 2026-04-26 15:06 | 47.79328 | -1.41913 | 7182 ft | 238 kts | 356° |
| 2026-04-26 15:06 | 47.80981 | -1.42447 | 6975 ft | 259 kts | 331° |
| 2026-04-26 15:06 | 47.82419 | -1.44215 | 6630 ft | 276 kts | 313° |
| 2026-04-26 15:07 | 47.85155 | -1.48226 | 6028 ft | 276 kts | 336° |
| 2026-04-26 15:07 | 47.87014 | -1.48644 | 5802 ft | 272 kts | 6° |
| 2026-04-26 15:07 | 47.88814 | -1.47877 | 5569 ft | 268 kts | 24° |
| 2026-04-26 15:08 | 47.90382 | -1.46401 | 5374 ft | 265 kts | 38° |
| 2026-04-26 15:08 | 47.91793 | -1.44689 | 5398 ft | 260 kts | 38° |
| 2026-04-26 15:08 | 47.93278 | -1.43051 | 5125 ft | 271 kts | 34° |
| 2026-04-26 15:08 | 47.94862 | -1.41554 | 4802 ft | 266 kts | 30° |
| 2026-04-26 15:09 | 47.96501 | -1.40286 | 4492 ft | 259 kts | 25° |
| 2026-04-26 15:09 | 47.98144 | -1.39268 | 4195 ft | 252 kts | 20° |
| 2026-04-26 15:09 | 47.99786 | -1.38532 | 3996 ft | 238 kts | 5° |
| 2026-04-26 15:09 | 48.01304 | -1.39047 | 3840 ft | 221 kts | 324° |
| 2026-04-26 15:10 | 48.02226 | -1.40757 | 3748 ft | 206 kts | 297° |
| 2026-04-26 15:10 | 48.02656 | -1.42030 | 3445 ft | 210 kts | 296° |
| 2026-04-26 15:10 | 48.03372 | -1.44609 | 3406 ft | 194 kts | 288° |
| 2026-04-26 15:10 | 48.03779 | -1.46521 | 3394 ft | 192 kts | 285° |
| 2026-04-26 15:11 | 48.04093 | -1.48445 | 3211 ft | 188 kts | 282° |
| 2026-04-26 15:11 | 48.04342 | -1.50347 | 2953 ft | 185 kts | 281° |
| 2026-04-26 15:11 | 48.04575 | -1.52221 | 2721 ft | 183 kts | 280° |
| 2026-04-26 15:11 | 48.04804 | -1.54077 | 2471 ft | 179 kts | 281° |
| 2026-04-26 15:12 | 48.05029 | -1.55894 | 2244 ft | 175 kts | 281° |
| 2026-04-26 15:12 | 48.05243 | -1.57627 | 2019 ft | 164 kts | 281° |
| 2026-04-26 15:12 | 48.05449 | -1.59267 | 1843 ft | 157 kts | 281° |
| 2026-04-26 15:12 | 48.05649 | -1.60886 | 1600 ft | 156 kts | 281° |
| 2026-04-26 15:13 | 48.05845 | -1.62461 | 1386 ft | 153 kts | 281° |
| 2026-04-26 15:13 | 48.06039 | -1.64021 | 1175 ft | 151 kts | 281° |
| 2026-04-26 15:13 | 48.06227 | -1.65562 | 995 ft | 150 kts | 281° |
| 2026-04-26 15:13 | 48.06429 | -1.67085 | 820 ft | 149 kts | 281° |
| 2026-04-26 15:14 | 48.06608 | -1.68609 | 637 ft | 148 kts | 281° |
| 2026-04-26 15:14 | 48.06803 | -1.70130 | 405 ft | 148 kts | 279° |
| 2026-04-26 15:14 | 48.06932 | -1.71143 | 262 ft | 147 kts | 281° |
| 2026-04-26 15:14 | 48.07122 | -1.72648 | 132 ft | 133 kts | 281° |
| 2026-04-26 15:15 | 48.07254 | -1.73684 | 114 ft | 70 kts | 281° |
| 2026-04-26 15:15 | 48.07312 | -1.74138 | 101 ft | 29 kts | 281° |
| 2026-04-26 15:15 | 48.07332 | -1.74300 | 100 ft | 14 kts | 280° |
| 2026-04-26 15:15 | 48.07319 | -1.74444 | 95 ft | 16 kts | 250° |
| 2026-04-26 15:16 | 48.07321 | -1.74568 | 87 ft | 12 kts | 328° |
| 2026-04-26 15:16 | 48.07373 | -1.74545 | 89 ft | 8 kts | 62° |
| 2026-04-26 15:16 | 48.07362 | -1.74471 | 93 ft | 8 kts | 110° |
| 2026-04-26 15:16 | 48.07342 | -1.74364 | 98 ft | 13 kts | 103° |
| 2026-04-26 15:17 | 48.07316 | -1.74192 | 101 ft | 21 kts | 102° |
| 2026-04-26 15:17 | 48.07292 | -1.74033 | 105 ft | 24 kts | 101° |
| 2026-04-26 15:17 | 48.07258 | -1.73720 | 113 ft | 18 kts | 103° |
| 2026-04-26 15:17 | 48.07183 | -1.73590 | 122 ft | 17 kts | 156° |
| 2026-04-26 15:18 | 48.07092 | -1.73494 | 127 ft | 14 kts | 131° |
| 2026-04-26 15:18 | 48.07060 | -1.73364 | 128 ft | 13 kts | 102° |
| 2026-04-26 15:18 | 48.07046 | -1.73232 | 131 ft | 13 kts | 99° |
| 2026-04-26 15:18 | 48.07030 | -1.73104 | 132 ft | 13 kts | 101° |
| 2026-04-26 15:19 | 48.07011 | -1.72978 | 132 ft | 12 kts | 103° |
| 2026-04-26 15:19 | 48.06997 | -1.72876 | 132 ft | 8 kts | 100° |
| 2026-04-26 15:19 | 48.06988 | -1.72797 | 132 ft | 8 kts | 100° |
| 2026-04-26 15:19 | 48.06979 | -1.72720 | 132 ft | 7 kts | 100° |
| 2026-04-26 15:20 | 48.06969 | -1.72644 | 132 ft | 7 kts | 100° |
| 2026-04-26 15:20 | 48.06961 | -1.72574 | 132 ft | 4 kts | 99° |
| 2026-04-26 15:20 | 48.06951 | -1.72533 | 132 ft | 4 kts | 136° |
| 2026-04-26 15:20 | 48.06916 | -1.72535 | 132 ft | 7 kts | 210° |
| 2026-04-26 15:21 | 48.06903 | -1.72552 | 132 ft | 2 kts | 222° |
| 2026-04-26 15:21 | 48.06892 | -1.72568 | 132 ft | 0 kts | 224° |